Das Wetter fuer Meerbusch Buederich
Wetterdaten: aktuell Sonntag, 04.06.2023 14:10
Datum Zeit Temp.Mast Feuchte Mast Sonnenstand Luftdruck Regen Wind Richtung Richtung Sonnenschein Taupunkt Windchill Windböen
04.06.2023 14:10 27,0 °C 30 % 5 cb 1014,0 hPa 0,0 mm 3,6 km/h W-SW 240 ° 5 min 7,9 °C 27,0 °C 3,6 km/h
04.06.2023 14:05 26,9 °C 32 % 5 cb 1014,0 hPa 0,0 mm 2,4 km/h W-SW 255 ° 5 min 8,8 °C 26,9 °C 2,4 km/h
04.06.2023 14:00 26,3 °C 33 % 5 cb 1014,0 hPa 0,0 mm 2,4 km/h S-SW 210 ° 5 min 8,7 °C 26,3 °C 2,4 km/h
04.06.2023 13:55 26,1 °C 33 % 6 cb 1014,0 hPa 0,0 mm 4,8 km/h O-SO 115 ° 6 min 8,6 °C 26,1 °C 4,8 km/h
04.06.2023 13:50 25,4 °C 32 % 4 cb 1015,0 hPa 0,0 mm 10,9 km/h O-NO 70 ° 4 min 7,5 °C 25,4 °C 10,9 km/h
04.06.2023 13:45 26,0 °C 32 % 6 cb 1015,0 hPa 0,0 mm 7,9 km/h O 100 ° 6 min 8,0 °C 26,0 °C 7,9 km/h
04.06.2023 13:40 25,6 °C 35 % 4 cb 1015,0 hPa 0,0 mm 1,8 km/h N-NO 25 ° 4 min 9,0 °C 25,6 °C 1,8 km/h
04.06.2023 13:35 24,8 °C 33 % 6 cb 1015,0 hPa 0,0 mm 7,3 km/h NO 45 ° 6 min 7,4 °C 24,8 °C 7,3 km/h
04.06.2023 13:30 24,5 °C 34 % 5 cb 1015,0 hPa 0,0 mm 9,1 km/h NO 45 ° 5 min 7,6 °C 24,5 °C 9,1 km/h
04.06.2023 13:25 26,3 °C 32 % 5 cb 1015,0 hPa 0,0 mm 12,1 km/h O-NO 75 ° 5 min 8,3 °C 26,3 °C 12,1 km/h
04.06.2023 13:20 27,1 °C 35 % 5 cb 1015,0 hPa 0,0 mm 3,6 km/h O 85 ° 5 min 10,3 °C 27,1 °C 3,6 km/h
04.06.2023 13:15 26,6 °C 35 % 5 cb 1015,0 hPa 0,0 mm 2,4 km/h O-SO 105 ° 5 min 9,9 °C 26,6 °C 2,4 km/h
04.06.2023 13:10 26,0 °C 34 % 5 cb 1015,0 hPa 0,0 mm 5,4 km/h W 275 ° 5 min 8,9 °C 26,0 °C 5,4 km/h
04.06.2023 13:05 25,7 °C 36 % 5 cb 1015,0 hPa 0,0 mm 9,1 km/h NO 45 ° 5 min 9,5 °C 25,7 °C 9,1 km/h
04.06.2023 13:00 25,3 °C 35 % 5 cb 1015,0 hPa 0,0 mm 9,7 km/h SO 125 ° 5 min 8,7 °C 25,3 °C 9,7 km/h
04.06.2023 12:55 24,6 °C 34 % 5 cb 1015,0 hPa 0,0 mm 7,3 km/h S-SO 155 ° 5 min 7,7 °C 24,6 °C 7,3 km/h
04.06.2023 12:50 24,7 °C 35 % 5 cb 1015,0 hPa 0,0 mm 6,1 km/h W 280 ° 5 min 8,2 °C 24,7 °C 6,1 km/h
04.06.2023 12:45 24,9 °C 35 % 5 cb 1015,0 hPa 0,0 mm 10,9 km/h N-NO 15 ° 5 min 8,4 °C 24,9 °C 10,9 km/h
04.06.2023 12:40 24,7 °C 36 % 5 cb 1015,0 hPa 0,0 mm 4,2 km/h O 100 ° 5 min 8,6 °C 24,7 °C 4,2 km/h
04.06.2023 12:35 24,9 °C 35 % 5 cb 1015,0 hPa 0,0 mm 13,3 km/h N-NO 30 ° 5 min 8,4 °C 24,9 °C 13,3 km/h
04.06.2023 12:30 24,7 °C 37 % 5 cb 1015,0 hPa 0,0 mm 3,6 km/h O 95 ° 5 min 9,0 °C 24,7 °C 3,6 km/h
04.06.2023 12:25 23,8 °C 37 % 5 cb 1015,0 hPa 0,0 mm 4,8 km/h W-NW 295 ° 5 min 8,2 °C 23,8 °C 4,8 km/h
04.06.2023 12:20 23,3 °C 35 % 5 cb 1015,0 hPa 0,0 mm 12,1 km/h O-NO 70 ° 5 min 7,0 °C 23,3 °C 12,1 km/h
04.06.2023 12:15 23,8 °C 36 % 6 cb 1015,0 hPa 0,0 mm 10,9 km/h O-NO 65 ° 6 min 7,8 °C 23,8 °C 10,9 km/h
04.06.2023 12:10 23,7 °C 36 % 4 cb 1015,0 hPa 0,0 mm 10,3 km/h O-NO 70 ° 4 min 7,7 °C 23,7 °C 10,3 km/h
04.06.2023 12:05 24,0 °C 36 % 3 cb 1015,0 hPa 0,0 mm 9,7 km/h O-NO 75 ° 3 min 8,0 °C 24,0 °C 9,7 km/h
04.06.2023 12:00 24,0 °C 35 % 5 cb 1015,0 hPa 0,0 mm 8,5 km/h S 175 ° 5 min 7,6 °C 24,0 °C 8,5 km/h
04.06.2023 11:55 24,2 °C 36 % 8 cb 1015,0 hPa 0,0 mm 7,9 km/h O 85 ° 8 min 8,2 °C 24,2 °C 7,9 km/h
04.06.2023 11:50 24,4 °C 39 % 3 cb 1015,0 hPa 0,0 mm 10,3 km/h O 100 ° 3 min 9,5 °C 24,4 °C 10,3 km/h
04.06.2023 11:45 24,1 °C 36 % 4 cb 1015,0 hPa 0,0 mm 10,3 km/h SO 125 ° 4 min 8,1 °C 24,1 °C 10,3 km/h
04.06.2023 11:40 23,6 °C 37 % 6 cb 1015,0 hPa 0,0 mm 6,1 km/h O-NO 75 ° 6 min 8,0 °C 23,6 °C 6,1 km/h
04.06.2023 11:35 23,6 °C 35 % 5 cb 1015,0 hPa 0,0 mm 7,9 km/h N-NW 345 ° 5 min 7,2 °C 23,6 °C 7,9 km/h
04.06.2023 11:30 23,6 °C 35 % 5 cb 1015,0 hPa 0,0 mm 9,7 km/h O-NO 65 ° 5 min 7,2 °C 23,6 °C 9,7 km/h
04.06.2023 11:25 23,8 °C 36 % 4 cb 1015,0 hPa 0,0 mm 7,3 km/h O 90 ° 4 min 7,8 °C 23,8 °C 7,3 km/h
04.06.2023 11:20 24,2 °C 38 % 6 cb 1015,0 hPa 0,0 mm 9,1 km/h O-NO 75 ° 6 min 9,0 °C 24,2 °C 9,1 km/h
04.06.2023 11:15 23,7 °C 39 % 5 cb 1015,0 hPa 0,0 mm 3,6 km/h O-SO 110 ° 5 min 8,9 °C 23,7 °C 3,6 km/h
04.06.2023 11:10 23,1 °C 38 % 5 cb 1015,0 hPa 0,0 mm 9,7 km/h SW 225 ° 5 min 8,0 °C 23,1 °C 9,7 km/h
04.06.2023 11:05 24,1 °C 37 % 5 cb 1015,0 hPa 0,0 mm 7,9 km/h SO 135 ° 5 min 8,5 °C 24,1 °C 7,9 km/h
04.06.2023 11:00 24,1 °C 39 % 5 cb 1015,0 hPa 0,0 mm 8,5 km/h W-SW 240 ° 5 min 9,3 °C 24,1 °C 8,5 km/h
04.06.2023 10:55 23,9 °C 40 % 5 cb 1015,0 hPa 0,0 mm 6,1 km/h SW 230 ° 5 min 9,5 °C 23,9 °C 6,1 km/h
04.06.2023 10:50 23,7 °C 40 % 5 cb 1015,0 hPa 0,0 mm 5,4 km/h W-SW 245 ° 5 min 9,3 °C 23,7 °C 5,4 km/h
04.06.2023 10:45 23,6 °C 38 % 5 cb 1015,0 hPa 0,0 mm 10,9 km/h O 80 ° 5 min 8,4 °C 23,6 °C 10,9 km/h
04.06.2023 10:40 24,3 °C 39 % 5 cb 1015,0 hPa 0,0 mm 4,8 km/h NO 50 ° 5 min 9,4 °C 24,3 °C 4,8 km/h
04.06.2023 10:35 24,5 °C 41 % 5 cb 1015,0 hPa 0,0 mm 2,4 km/h W 280 ° 5 min 10,4 °C 24,5 °C 2,4 km/h
04.06.2023 10:30 24,2 °C 42 % 6 cb 1015,0 hPa 0,0 mm 3,0 km/h O-SO 115 ° 6 min 10,5 °C 24,2 °C 3,0 km/h
04.06.2023 10:25 23,9 °C 44 % 5 cb 1015,0 hPa 0,0 mm 3,6 km/h O-SO 105 ° 5 min 10,9 °C 23,9 °C 3,6 km/h
04.06.2023 10:20 23,8 °C 42 % 5 cb 1014,0 hPa 0,0 mm 3,0 km/h O 80 ° 5 min 10,1 °C 23,8 °C 3,0 km/h
04.06.2023 10:15 23,6 °C 43 % 5 cb 1014,0 hPa 0,0 mm 5,4 km/h NO 40 ° 5 min 10,3 °C 23,6 °C 5,4 km/h
04.06.2023 10:10 23,3 °C 42 % 4 cb 1014,0 hPa 0,0 mm 3,6 km/h O 100 ° 4 min 9,7 °C 23,3 °C 3,6 km/h
04.06.2023 10:05 23,2 °C 44 % 5 cb 1015,0 hPa 0,0 mm 3,6 km/h NO 55 ° 5 min 10,3 °C 23,2 °C 3,6 km/h
04.06.2023 10:00 22,9 °C 44 % 6 cb 1015,0 hPa 0,0 mm 4,2 km/h NO 35 ° 6 min 10,0 °C 22,9 °C 4,2 km/h
04.06.2023 09:55 22,8 °C 46 % 4 cb 1015,0 hPa 0,0 mm 1,8 km/h N-NO 15 ° 4 min 10,6 °C 22,8 °C 1,8 km/h
04.06.2023 09:50 22,7 °C 46 % 6 cb 1015,0 hPa 0,0 mm 2,4 km/h N 0 ° 6 min 10,5 °C 22,7 °C 2,4 km/h
04.06.2023 09:45 22,1 °C 47 % 4 cb 1015,0 hPa 0,0 mm 3,6 km/h S-SW 200 ° 4 min 10,3 °C 22,1 °C 3,6 km/h
04.06.2023 09:40 22,1 °C 48 % 6 cb 1015,0 hPa 0,0 mm 6,1 km/h SO 135 ° 6 min 10,6 °C 22,1 °C 6,1 km/h
04.06.2023 09:35 21,5 °C 46 % 5 cb 1015,0 hPa 0,0 mm 2,4 km/h N-NW 335 ° 5 min 9,4 °C 21,5 °C 2,4 km/h
04.06.2023 09:30 21,1 °C 47 % 5 cb 1015,0 hPa 0,0 mm 4,2 km/h O 100 ° 5 min 9,3 °C 21,1 °C 4,2 km/h
04.06.2023 09:25 21,0 °C 48 % 5 cb 1015,0 hPa 0,0 mm 2,4 km/h SW 215 ° 5 min 9,6 °C 21,0 °C 2,4 km/h
04.06.2023 09:20 20,6 °C 49 % 5 cb 1015,0 hPa 0,0 mm 1,8 km/h S 185 ° 5 min 9,5 °C 20,6 °C 1,8 km/h
04.06.2023 09:15 20,4 °C 48 % 2 cb 1020,6 hPa 0,0 mm 6,1 km/h O 85 ° 2 min 9,0 °C 20,4 °C 6,1 km/h
04.06.2023 09:12 20,1 °C 50 % 3 cb 1020,6 hPa 0,0 mm 2,4 km/h W 280 ° 3 min 9,3 °C 20,1 °C 2,4 km/h
04.06.2023 09:08 20,0 °C 51 % 5 cb 1020,6 hPa 0,0 mm 7,3 km/h NW 305 ° 5 min 9,6 °C 20,0 °C 7,3 km/h
04.06.2023 09:03 20,0 °C 51 % 6 cb 1020,6 hPa 0,0 mm 4,2 km/h SW 225 ° 6 min 9,6 °C 20,0 °C 4,2 km/h
04.06.2023 08:58 19,8 °C 51 % 4 cb 1020,6 hPa 0,0 mm 1,8 km/h N 350 ° 4 min 9,4 °C 19,8 °C 1,8 km/h
04.06.2023 08:53 19,6 °C 52 % 5 cb 1020,6 hPa 0,0 mm 2,4 km/h O-SO 115 ° 5 min 9,5 °C 19,6 °C 2,4 km/h
04.06.2023 08:48 19,6 °C 52 % 4 cb 1020,6 hPa 0,0 mm 1,2 km/h NO 45 ° 4 min 9,5 °C 19,6 °C 1,2 km/h
04.06.2023 08:43 19,4 °C 54 % 7 cb 1020,6 hPa 0,0 mm 1,8 km/h NO 40 ° 7 min 9,8 °C 19,4 °C 1,8 km/h
04.06.2023 08:38 18,8 °C 55 % 3 cb 1020,6 hPa 0,0 mm 1,8 km/h NO 35 ° 3 min 9,6 °C 18,8 °C 1,8 km/h
04.06.2023 08:33 18,6 °C 55 % 4 cb 1020,6 hPa 0,0 mm 2,4 km/h S-SW 200 ° 4 min 9,4 °C 18,6 °C 2,4 km/h
04.06.2023 08:28 18,7 °C 56 % 6 cb 1020,6 hPa 0,0 mm 1,2 km/h O-SO 120 ° 6 min 9,7 °C 18,7 °C 1,2 km/h
04.06.2023 08:23 18,3 °C 56 % 7 cb 1020,6 hPa 0,0 mm 2,4 km/h O 80 ° 7 min 9,4 °C 18,3 °C 2,4 km/h
04.06.2023 08:18 18,0 °C 58 % 2 cb 1019,6 hPa 0,0 mm 1,2 km/h NO 35 ° 2 min 9,6 °C 18,0 °C 1,2 km/h
04.06.2023 08:13 17,7 °C 58 % 5 cb 1019,6 hPa 0,0 mm 0,6 km/h SW 215 ° 5 min 9,3 °C 17,7 °C 0,6 km/h
04.06.2023 08:08 17,4 °C 59 % 6 cb 1019,6 hPa 0,0 mm 0,6 km/h NO 50 ° 6 min 9,3 °C 17,4 °C 0,6 km/h
04.06.2023 08:03 17,1 °C 61 % 4 cb 1019,6 hPa 0,0 mm 1,2 km/h W-SW 255 ° 4 min 9,5 °C 17,1 °C 1,2 km/h
04.06.2023 07:58 16,8 °C 61 % 5 cb 1019,6 hPa 0,0 mm 1,8 km/h SW 215 ° 5 min 9,2 °C 16,8 °C 1,8 km/h
04.06.2023 07:53 16,6 °C 61 % 6 cb 1019,6 hPa 0,0 mm 0,0 km/h O 85 ° 6 min 9,0 °C 16,6 °C 0,0 km/h
04.06.2023 07:48 16,3 °C 62 % 5 cb 1019,6 hPa 0,0 mm 0,0 km/h W-SW 240 ° 5 min 9,0 °C 16,3 °C 0,0 km/h
04.06.2023 07:43 16,0 °C 63 % 5 cb 1019,6 hPa 0,0 mm 1,2 km/h SO 135 ° 5 min 9,0 °C 16,0 °C 1,2 km/h
04.06.2023 07:38 15,6 °C 64 % 5 cb 1019,7 hPa 0,0 mm 0,6 km/h O-SO 115 ° 5 min 8,8 °C 15,6 °C 0,6 km/h
04.06.2023 07:33 15,5 °C 65 % 5 cb 1019,7 hPa 0,0 mm 1,8 km/h N 5 ° 5 min 8,9 °C 15,5 °C 1,8 km/h
04.06.2023 07:28 15,2 °C 66 % 5 cb 1019,7 hPa 0,0 mm 1,2 km/h W 275 ° 5 min 8,9 °C 15,2 °C 1,2 km/h
04.06.2023 07:23 15,0 °C 67 % 6 cb 1019,7 hPa 0,0 mm 0,0 km/h O-NO 65 ° 6 min 8,9 °C 15,0 °C 0,0 km/h
04.06.2023 07:18 14,3 °C 68 % 4 cb 1019,7 hPa 0,0 mm 0,6 km/h O 95 ° 4 min 8,5 °C 14,3 °C 0,6 km/h
04.06.2023 07:13 13,9 °C 70 % 6 cb 1019,7 hPa 0,0 mm 0,6 km/h O-NO 75 ° 6 min 8,5 °C 13,9 °C 0,6 km/h
04.06.2023 07:08 13,2 °C 71 % 4 cb 1019,7 hPa 0,0 mm 1,2 km/h SW 225 ° 4 min 8,1 °C 13,2 °C 1,2 km/h
04.06.2023 07:03 12,8 °C 72 % 6 cb 1019,7 hPa 0,0 mm 1,2 km/h W-SW 240 ° 6 min 7,9 °C 12,8 °C 1,2 km/h
04.06.2023 06:58 12,1 °C 74 % 5 cb 1019,7 hPa 0,0 mm 0,0 km/h SO 125 ° 5 min 7,6 °C 12,1 °C 0,0 km/h
04.06.2023 06:53 11,3 °C 75 % 3 cb 1019,7 hPa 0,0 mm 0,0 km/h W-SW 245 ° 3 min 7,0 °C 11,3 °C 0,0 km/h
04.06.2023 06:48 10,8 °C 76 % 1 cb 1019,7 hPa 0,0 mm 0,6 km/h O 95 ° 1 min 6,7 °C 10,8 °C 0,6 km/h
04.06.2023 06:43 10,4 °C 76 % 0 cb 1019,8 hPa 0,0 mm 0,6 km/h NO 40 ° 0 min 6,4 °C 10,4 °C 0,6 km/h
04.06.2023 06:38 10,3 °C 76 % 0 cb 1019,8 hPa 0,0 mm 0,0 km/h SW 225 ° 0 min 6,3 °C 10,3 °C 0,0 km/h
04.06.2023 06:33 10,1 °C 76 % 0 cb 1019,8 hPa 0,0 mm 1,2 km/h SO 125 ° 0 min 6,1 °C 10,1 °C 1,2 km/h
04.06.2023 06:28 10,0 °C 76 % 0 cb 1019,8 hPa 0,0 mm 0,0 km/h S-SO 165 ° 0 min 6,0 °C 10,0 °C 0,0 km/h
04.06.2023 06:23 9,9 °C 76 % 0 cb 1019,8 hPa 0,0 mm 0,0 km/h O-SO 120 ° 0 min 5,9 °C 9,9 °C 0,0 km/h
04.06.2023 06:18 9,8 °C 76 % 0 cb 1019,8 hPa 0,0 mm 0,0 km/h O-NO 60 ° 0 min 5,8 °C 9,8 °C 0,0 km/h
04.06.2023 06:13 9,5 °C 76 % 0 cb 1019,8 hPa 0,0 mm 0,0 km/h SW 235 ° 0 min 5,5 °C 9,5 °C 0,0 km/h
04.06.2023 06:08 9,5 °C 76 % 0 cb 1019,8 hPa 0,0 mm 0,6 km/h SO 125 ° 0 min 5,5 °C 9,5 °C 0,6 km/h
04.06.2023 06:03 9,3 °C 76 % 0 cb 1019,8 hPa 0,0 mm 0,0 km/h S 190 ° 0 min 5,3 °C 9,3 °C 0,0 km/h
04.06.2023 05:58 9,3 °C 76 % 0 cb 1019,8 hPa 0,0 mm 0,6 km/h S 185 ° 0 min 5,3 °C 9,3 °C 0,6 km/h
04.06.2023 05:53 9,1 °C 76 % 0 cb 1019,8 hPa 0,0 mm 0,0 km/h S-SO 165 ° 0 min 5,1 °C 9,1 °C 0,0 km/h
04.06.2023 05:48 9,1 °C 76 % 0 cb 1019,8 hPa 0,0 mm 0,0 km/h NO 55 ° 0 min 5,1 °C 9,1 °C 0,0 km/h
04.06.2023 05:43 9,1 °C 75 % 0 cb 1019,8 hPa 0,0 mm 0,0 km/h S 170 ° 0 min 4,9 °C 9,1 °C 0,0 km/h
04.06.2023 05:38 9,1 °C 75 % 0 cb 1019,8 hPa 0,0 mm 0,0 km/h N 0 ° 0 min 4,9 °C 9,1 °C 0,0 km/h
04.06.2023 05:34 9,2 °C 75 % 0 cb 1019,8 hPa 0,0 mm 0,0 km/h O 90 ° 0 min 5,0 °C 9,2 °C 0,0 km/h
04.06.2023 05:29 9,2 °C 74 % 0 cb 1019,8 hPa 0,0 mm 0,0 km/h O-NO 75 ° 0 min 4,8 °C 9,2 °C 0,0 km/h
04.06.2023 05:24 9,3 °C 74 % 0 cb 1019,8 hPa 0,0 mm 0,0 km/h SW 225 ° 0 min 4,9 °C 9,3 °C 0,0 km/h
04.06.2023 05:19 9,4 °C 74 % 0 cb 1019,8 hPa 0,0 mm 0,0 km/h SO 145 ° 0 min 5,0 °C 9,4 °C 0,0 km/h
04.06.2023 05:14 9,4 °C 73 % 0 cb 1019,8 hPa 0,0 mm 1,2 km/h S-SW 200 ° 0 min 4,8 °C 9,4 °C 1,2 km/h
04.06.2023 05:09 9,5 °C 73 % 0 cb 1019,8 hPa 0,0 mm 0,0 km/h NO 45 ° 0 min 4,9 °C 9,5 °C 0,0 km/h
04.06.2023 05:04 9,5 °C 72 % 0 cb 1019,8 hPa 0,0 mm 0,0 km/h N 350 ° 0 min 4,7 °C 9,5 °C 0,0 km/h
04.06.2023 04:59 9,7 °C 72 % 0 cb 1019,8 hPa 0,0 mm 0,0 km/h O-NO 75 ° 0 min 4,9 °C 9,7 °C 0,0 km/h
04.06.2023 04:54 9,8 °C 71 % 0 cb 1019,8 hPa 0,0 mm 0,0 km/h NO 35 ° 0 min 4,8 °C 9,8 °C 0,0 km/h
04.06.2023 04:49 9,9 °C 70 % 0 cb 1019,8 hPa 0,0 mm 0,0 km/h SO 145 ° 0 min 4,7 °C 9,9 °C 0,0 km/h
04.06.2023 04:44 10,0 °C 70 % 0 cb 1019,8 hPa 0,0 mm 0,0 km/h O-SO 105 ° 0 min 4,8 °C 10,0 °C 0,0 km/h
04.06.2023 04:39 10,0 °C 70 % 0 cb 1019,8 hPa 0,0 mm 0,0 km/h S-SW 210 ° 0 min 4,8 °C 10,0 °C 0,0 km/h
04.06.2023 04:29 10,2 °C 68 % 0 cb 1019,8 hPa 0,0 mm 0,0 km/h NO 45 ° 0 min 4,6 °C 10,2 °C 0,0 km/h
04.06.2023 04:24 10,4 °C 68 % 0 cb 1019,8 hPa 0,0 mm 0,0 km/h S-SW 205 ° 0 min 4,8 °C 10,4 °C 0,0 km/h
04.06.2023 04:19 10,6 °C 67 % 0 cb 1019,8 hPa 0,0 mm 0,0 km/h O 95 ° 0 min 4,7 °C 10,6 °C 0,0 km/h
04.06.2023 04:14 10,6 °C 66 % 0 cb 1019,8 hPa 0,0 mm 0,0 km/h SW 225 ° 0 min 4,5 °C 10,6 °C 0,0 km/h
04.06.2023 04:09 10,8 °C 66 % 0 cb 1019,7 hPa 0,0 mm 0,0 km/h NO 35 ° 0 min 4,7 °C 10,8 °C 0,0 km/h
04.06.2023 04:04 10,8 °C 65 % 0 cb 1019,7 hPa 0,0 mm 0,0 km/h O 95 ° 0 min 4,5 °C 10,8 °C 0,0 km/h
04.06.2023 03:59 11,0 °C 65 % 0 cb 1019,7 hPa 0,0 mm 0,0 km/h S-SO 165 ° 0 min 4,7 °C 11,0 °C 0,0 km/h
04.06.2023 03:54 11,0 °C 65 % 0 cb 1019,7 hPa 0,0 mm 0,0 km/h W 265 ° 0 min 4,7 °C 11,0 °C 0,0 km/h
04.06.2023 03:49 11,0 °C 65 % 0 cb 1019,7 hPa 0,0 mm 1,2 km/h O-SO 105 ° 0 min 4,7 °C 11,0 °C 1,2 km/h
04.06.2023 03:44 11,0 °C 64 % 0 cb 1019,7 hPa 0,0 mm 0,0 km/h W-SW 245 ° 0 min 4,5 °C 11,0 °C 0,0 km/h
04.06.2023 03:39 11,0 °C 64 % 0 cb 1019,7 hPa 0,0 mm 0,0 km/h W-SW 250 ° 0 min 4,5 °C 11,0 °C 0,0 km/h
04.06.2023 03:34 11,0 °C 65 % 0 cb 1019,7 hPa 0,0 mm 1,2 km/h NW 325 ° 0 min 4,7 °C 11,0 °C 1,2 km/h
04.06.2023 03:29 11,0 °C 65 % 0 cb 1019,7 hPa 0,0 mm 0,6 km/h W-SW 240 ° 0 min 4,7 °C 11,0 °C 0,6 km/h
04.06.2023 03:24 10,9 °C 65 % 0 cb 1019,7 hPa 0,0 mm 0,0 km/h S-SO 165 ° 0 min 4,6 °C 10,9 °C 0,0 km/h
04.06.2023 03:19 10,9 °C 65 % 0 cb 1019,7 hPa 0,0 mm 0,0 km/h W-NW 295 ° 0 min 4,6 °C 10,9 °C 0,0 km/h
04.06.2023 03:14 11,0 °C 65 % 0 cb 1019,7 hPa 0,0 mm 0,0 km/h S 180 ° 0 min 4,7 °C 11,0 °C 0,0 km/h
04.06.2023 03:09 11,0 °C 65 % 0 cb 1019,7 hPa 0,0 mm 1,2 km/h N-NW 345 ° 0 min 4,7 °C 11,0 °C 1,2 km/h
04.06.2023 03:04 11,0 °C 65 % 0 cb 1019,7 hPa 0,0 mm 0,0 km/h NO 55 ° 0 min 4,7 °C 11,0 °C 0,0 km/h
04.06.2023 02:59 11,0 °C 65 % 0 cb 1019,7 hPa 0,0 mm 0,0 km/h O-NO 60 ° 0 min 4,7 °C 11,0 °C 0,0 km/h
04.06.2023 02:54 11,1 °C 64 % 0 cb 1019,7 hPa 0,0 mm 0,0 km/h W 260 ° 0 min 4,6 °C 11,1 °C 0,0 km/h
04.06.2023 02:49 11,1 °C 64 % 0 cb 1019,7 hPa 0,0 mm 0,0 km/h N-NO 15 ° 0 min 4,6 °C 11,1 °C 0,0 km/h
04.06.2023 02:44 11,2 °C 64 % 0 cb 1019,7 hPa 0,0 mm 0,0 km/h NO 55 ° 0 min 4,6 °C 11,2 °C 0,0 km/h
04.06.2023 02:39 11,2 °C 64 % 0 cb 1019,7 hPa 0,0 mm 1,2 km/h NW 310 ° 0 min 4,6 °C 11,2 °C 1,2 km/h
04.06.2023 02:34 11,3 °C 64 % 0 cb 1019,7 hPa 0,0 mm 0,0 km/h S-SW 200 ° 0 min 4,7 °C 11,3 °C 0,0 km/h
04.06.2023 02:29 11,3 °C 64 % 0 cb 1019,7 hPa 0,0 mm 0,0 km/h NO 55 ° 0 min 4,7 °C 11,3 °C 0,0 km/h
04.06.2023 02:24 11,5 °C 64 % 0 cb 1019,7 hPa 0,0 mm 0,0 km/h S-SO 150 ° 0 min 4,9 °C 11,5 °C 0,0 km/h
04.06.2023 02:19 11,5 °C 63 % 0 cb 1019,7 hPa 0,0 mm 0,0 km/h O-NO 60 ° 0 min 4,7 °C 11,5 °C 0,0 km/h
04.06.2023 02:14 11,8 °C 63 % 0 cb 1019,7 hPa 0,0 mm 0,0 km/h S-SO 150 ° 0 min 5,0 °C 11,8 °C 0,0 km/h
04.06.2023 02:09 11,8 °C 62 % 0 cb 1019,7 hPa 0,0 mm 0,0 km/h O 80 ° 0 min 4,8 °C 11,8 °C 0,0 km/h
04.06.2023 02:04 11,9 °C 62 % 0 cb 1019,7 hPa 0,0 mm 0,0 km/h O 85 ° 0 min 4,9 °C 11,9 °C 0,0 km/h
04.06.2023 01:59 12,0 °C 61 % 0 cb 1019,7 hPa 0,0 mm 0,0 km/h O-NO 70 ° 0 min 4,7 °C 12,0 °C 0,0 km/h
04.06.2023 01:54 12,0 °C 61 % 0 cb 1019,7 hPa 0,0 mm 0,0 km/h S-SO 155 ° 0 min 4,7 °C 12,0 °C 0,0 km/h
04.06.2023 01:49 12,1 °C 61 % 0 cb 1019,7 hPa 0,0 mm 0,0 km/h O-SO 105 ° 0 min 4,8 °C 12,1 °C 0,0 km/h
04.06.2023 01:44 12,2 °C 61 % 0 cb 1019,7 hPa 0,0 mm 0,0 km/h W-SW 250 ° 0 min 4,9 °C 12,2 °C 0,0 km/h
04.06.2023 01:39 12,2 °C 61 % 0 cb 1019,7 hPa 0,0 mm 0,0 km/h S-SW 200 ° 0 min 4,9 °C 12,2 °C 0,0 km/h
04.06.2023 01:34 12,2 °C 61 % 0 cb 1019,7 hPa 0,0 mm 0,0 km/h SW 220 ° 0 min 4,9 °C 12,2 °C 0,0 km/h
04.06.2023 01:29 12,2 °C 61 % 0 cb 1019,7 hPa 0,0 mm 0,0 km/h S-SO 160 ° 0 min 4,9 °C 12,2 °C 0,0 km/h
04.06.2023 01:24 12,2 °C 61 % 0 cb 1019,7 hPa 0,0 mm 0,0 km/h SO 135 ° 0 min 4,9 °C 12,2 °C 0,0 km/h
04.06.2023 01:19 12,2 °C 61 % 0 cb 1019,7 hPa 0,0 mm 0,0 km/h SW 235 ° 0 min 4,9 °C 12,2 °C 0,0 km/h
04.06.2023 01:14 12,2 °C 61 % 0 cb 1019,7 hPa 0,0 mm 0,0 km/h O-NO 60 ° 0 min 4,9 °C 12,2 °C 0,0 km/h
04.06.2023 01:09 12,3 °C 60 % 0 cb 1019,7 hPa 0,0 mm 0,0 km/h O-SO 115 ° 0 min 4,8 °C 12,3 °C 0,0 km/h
04.06.2023 01:04 12,4 °C 60 % 0 cb 1019,7 hPa 0,0 mm 0,0 km/h SW 220 ° 0 min 4,9 °C 12,4 °C 0,0 km/h
04.06.2023 00:59 12,5 °C 59 % 0 cb 1019,7 hPa 0,0 mm 0,0 km/h O-SO 120 ° 0 min 4,7 °C 12,5 °C 0,0 km/h
04.06.2023 00:54 12,5 °C 59 % 0 cb 1019,7 hPa 0,0 mm 1,2 km/h S-SO 160 ° 0 min 4,7 °C 12,5 °C 1,2 km/h
04.06.2023 00:49 12,6 °C 59 % 0 cb 1019,7 hPa 0,0 mm 0,0 km/h S-SW 210 ° 0 min 4,8 °C 12,6 °C 0,0 km/h
04.06.2023 00:44 12,6 °C 58 % 0 cb 1019,7 hPa 0,0 mm 0,0 km/h O 90 ° 0 min 4,6 °C 12,6 °C 0,0 km/h
04.06.2023 00:39 12,8 °C 58 % 0 cb 1019,7 hPa 0,0 mm 0,0 km/h O 95 ° 0 min 4,7 °C 12,8 °C 0,0 km/h
04.06.2023 00:34 12,9 °C 58 % 0 cb 1019,7 hPa 0,0 mm 0,0 km/h S 170 ° 0 min 4,8 °C 12,9 °C 0,0 km/h
04.06.2023 00:29 13,1 °C 57 % 0 cb 1019,7 hPa 0,0 mm 0,0 km/h N-NO 15 ° 0 min 4,8 °C 13,1 °C 0,0 km/h
04.06.2023 00:24 13,3 °C 56 % 0 cb 1019,7 hPa 0,0 mm 0,0 km/h S-SW 200 ° 0 min 4,7 °C 13,3 °C 0,0 km/h
04.06.2023 00:19 13,4 °C 56 % 0 cb 1019,7 hPa 0,0 mm 0,0 km/h NO 35 ° 0 min 4,8 °C 13,4 °C 0,0 km/h
04.06.2023 00:14 13,6 °C 54 % 0 cb 1019,7 hPa 0,0 mm 0,0 km/h S-SO 150 ° 0 min 4,5 °C 13,6 °C 0,0 km/h
04.06.2023 00:09 13,8 °C 54 % 0 cb 1019,7 hPa 0,0 mm 0,0 km/h SO 125 ° 0 min 4,7 °C 13,8 °C 0,0 km/h
04.06.2023 00:04 13,9 °C 54 % 0 cb 1019,7 hPa 0,0 mm 0,0 km/h N 355 ° 0 min 4,7 °C 13,9 °C 0,0 km/h
03.06.2023 23:59 14,1 °C 53 % 0 cb 1019,7 hPa 0,0 mm 0,0 km/h NO 45 ° 0 min 4,7 °C 14,1 °C 0,0 km/h
03.06.2023 23:54 14,3 °C 53 % 0 cb 1019,7 hPa 0,0 mm 0,0 km/h S-SW 195 ° 0 min 4,9 °C 14,3 °C 0,0 km/h
03.06.2023 23:49 14,4 °C 52 % 0 cb 1019,7 hPa 0,0 mm 0,0 km/h SO 125 ° 0 min 4,7 °C 14,4 °C 0,0 km/h
03.06.2023 23:44 14,6 °C 51 % 0 cb 1019,7 hPa 0,0 mm 0,0 km/h O-NO 60 ° 0 min 4,6 °C 14,6 °C 0,0 km/h
03.06.2023 23:39 14,8 °C 51 % 0 cb 1019,7 hPa 0,0 mm 0,0 km/h N-NO 25 ° 0 min 4,8 °C 14,8 °C 0,0 km/h
03.06.2023 23:34 15,0 °C 50 % 0 cb 1019,7 hPa 0,0 mm 0,0 km/h W 265 ° 0 min 4,7 °C 15,0 °C 0,0 km/h
03.06.2023 23:29 15,2 °C 50 % 0 cb 1019,7 hPa 0,0 mm 1,2 km/h SW 220 ° 0 min 4,8 °C 15,2 °C 1,2 km/h
03.06.2023 23:24 15,3 °C 49 % 0 cb 1019,7 hPa 0,0 mm 1,2 km/h W-SW 240 ° 0 min 4,7 °C 15,3 °C 1,2 km/h
03.06.2023 23:19 15,5 °C 49 % 0 cb 1019,7 hPa 0,0 mm 0,0 km/h S-SO 160 ° 0 min 4,8 °C 15,5 °C 0,0 km/h
03.06.2023 23:14 15,6 °C 49 % 0 cb 1019,7 hPa 0,0 mm 0,6 km/h SO 125 ° 0 min 4,9 °C 15,6 °C 0,6 km/h
03.06.2023 23:09 15,7 °C 48 % 0 cb 1019,7 hPa 0,0 mm 0,0 km/h W-SW 240 ° 0 min 4,7 °C 15,7 °C 0,0 km/h
03.06.2023 23:04 15,8 °C 48 % 0 cb 1019,6 hPa 0,0 mm 1,2 km/h N-NO 30 ° 0 min 4,8 °C 15,8 °C 1,2 km/h
03.06.2023 22:59 15,9 °C 48 % 0 cb 1019,6 hPa 0,0 mm 1,2 km/h SO 140 ° 0 min 4,9 °C 15,9 °C 1,2 km/h
03.06.2023 22:54 16,0 °C 47 % 0 cb 1019,6 hPa 0,0 mm 0,6 km/h NO 50 ° 0 min 4,7 °C 16,0 °C 0,6 km/h
03.06.2023 22:49 16,1 °C 48 % 0 cb 1019,6 hPa 0,0 mm 1,2 km/h NW 320 ° 0 min 5,1 °C 16,1 °C 1,2 km/h
03.06.2023 22:44 16,2 °C 48 % 0 cb 1019,6 hPa 0,0 mm 1,8 km/h W-SW 255 ° 0 min 5,2 °C 16,2 °C 1,8 km/h
03.06.2023 22:39 16,3 °C 48 % 0 cb 1019,6 hPa 0,0 mm 0,6 km/h O-NO 60 ° 0 min 5,3 °C 16,3 °C 0,6 km/h
03.06.2023 22:34 16,5 °C 48 % 0 cb 1019,6 hPa 0,0 mm 3,6 km/h O-NO 65 ° 0 min 5,5 °C 16,5 °C 3,6 km/h
03.06.2023 22:29 16,7 °C 47 % 0 cb 1019,6 hPa 0,0 mm 3,6 km/h W-NW 285 ° 0 min 5,3 °C 16,7 °C 3,6 km/h
03.06.2023 22:24 16,8 °C 46 % 0 cb 1019,6 hPa 0,0 mm 0,6 km/h NW 325 ° 0 min 5,1 °C 16,8 °C 0,6 km/h
03.06.2023 22:19 16,8 °C 46 % 0 cb 1019,6 hPa 0,0 mm 7,9 km/h NW 310 ° 0 min 5,1 °C 16,8 °C 7,9 km/h
03.06.2023 22:14 17,1 °C 46 % 0 cb 1019,6 hPa 0,0 mm 1,8 km/h O-NO 65 ° 0 min 5,4 °C 17,1 °C 1,8 km/h
03.06.2023 22:09 17,3 °C 45 % 0 cb 1019,6 hPa 0,0 mm 1,8 km/h N-NO 15 ° 0 min 5,3 °C 17,3 °C 1,8 km/h
03.06.2023 22:04 17,4 °C 44 % 0 cb 1019,6 hPa 0,0 mm 2,4 km/h SW 220 ° 0 min 5,0 °C 17,4 °C 2,4 km/h
03.06.2023 21:59 17,6 °C 43 % 0 cb 1019,6 hPa 0,0 mm 1,8 km/h O-SO 110 ° 0 min 4,9 °C 17,6 °C 1,8 km/h
03.06.2023 21:54 17,7 °C 43 % 0 cb 1019,6 hPa 0,0 mm 3,6 km/h O-NO 65 ° 0 min 5,0 °C 17,7 °C 3,6 km/h
03.06.2023 21:49 17,9 °C 43 % 0 cb 1018,6 hPa 0,0 mm 3,0 km/h NO 50 ° 0 min 5,1 °C 17,9 °C 3,0 km/h
03.06.2023 21:44 18,1 °C 43 % 0 cb 1018,6 hPa 0,0 mm 1,2 km/h NO 50 ° 0 min 5,3 °C 18,1 °C 1,2 km/h
03.06.2023 21:39 18,2 °C 42 % 0 cb 1018,6 hPa 0,0 mm 3,0 km/h SO 130 ° 0 min 5,1 °C 18,2 °C 3,0 km/h
03.06.2023 21:34 18,3 °C 42 % 0 cb 1018,6 hPa 0,0 mm 3,6 km/h O 85 ° 0 min 5,2 °C 18,3 °C 3,6 km/h
03.06.2023 21:29 18,4 °C 42 % 0 cb 1018,6 hPa 0,0 mm 4,2 km/h SW 230 ° 0 min 5,3 °C 18,4 °C 4,2 km/h
03.06.2023 21:24 18,5 °C 41 % 0 cb 1018,6 hPa 0,0 mm 7,3 km/h NO 50 ° 0 min 5,0 °C 18,5 °C 7,3 km/h
03.06.2023 21:19 18,6 °C 42 % 0 cb 1018,6 hPa 0,0 mm 1,8 km/h O 85 ° 0 min 5,4 °C 18,6 °C 1,8 km/h
03.06.2023 21:14 18,9 °C 41 % 0 cb 1018,6 hPa 0,0 mm 1,2 km/h SW 230 ° 0 min 5,4 °C 18,9 °C 1,2 km/h
03.06.2023 21:09 19,0 °C 40 % 0 cb 1018,6 hPa 0,0 mm 6,1 km/h S 185 ° 0 min 5,1 °C 19,0 °C 6,1 km/h
03.06.2023 21:04 19,1 °C 41 % 0 cb 1018,6 hPa 0,0 mm 1,2 km/h S 185 ° 0 min 5,5 °C 19,1 °C 1,2 km/h
03.06.2023 20:59 19,3 °C 40 % 0 cb 1018,6 hPa 0,0 mm 3,0 km/h W-SW 240 ° 0 min 5,4 °C 19,3 °C 3,0 km/h
03.06.2023 20:54 19,4 °C 41 % 0 cb 1018,6 hPa 0,0 mm 1,2 km/h O-SO 120 ° 0 min 5,8 °C 19,4 °C 1,2 km/h
03.06.2023 20:49 19,6 °C 40 % 0 cb 1018,6 hPa 0,0 mm 2,4 km/h O-SO 110 ° 0 min 5,6 °C 19,6 °C 2,4 km/h
03.06.2023 20:44 19,8 °C 39 % 0 cb 1018,6 hPa 0,0 mm 1,8 km/h NO 40 ° 0 min 5,4 °C 19,8 °C 1,8 km/h
03.06.2023 20:39 19,9 °C 38 % 0 cb 1018,6 hPa 0,0 mm 4,8 km/h SO 145 ° 0 min 5,2 °C 19,9 °C 4,8 km/h
03.06.2023 20:34 20,0 °C 37 % 0 cb 1018,6 hPa 0,0 mm 9,1 km/h O 85 ° 0 min 4,9 °C 20,0 °C 9,1 km/h
03.06.2023 20:29 20,0 °C 37 % 0 cb 1018,6 hPa 0,0 mm 7,3 km/h W-NW 295 ° 0 min 4,9 °C 20,0 °C 7,3 km/h
03.06.2023 20:24 20,2 °C 38 % 0 cb 1018,6 hPa 0,0 mm 6,1 km/h S-SW 195 ° 0 min 5,4 °C 20,2 °C 6,1 km/h
03.06.2023 20:19 20,3 °C 37 % 0 cb 1018,6 hPa 0,0 mm 11,5 km/h O-NO 75 ° 0 min 5,1 °C 20,3 °C 11,5 km/h
03.06.2023 20:14 20,5 °C 37 % 0 cb 1018,6 hPa 0,0 mm 5,4 km/h NO 35 ° 0 min 5,3 °C 20,5 °C 5,4 km/h
03.06.2023 20:09 20,6 °C 37 % 0 cb 1018,6 hPa 0,0 mm 6,7 km/h NO 40 ° 0 min 5,4 °C 20,6 °C 6,7 km/h
03.06.2023 20:04 20,6 °C 37 % 0 cb 1018,6 hPa 0,0 mm 6,1 km/h O 85 ° 0 min 5,4 °C 20,6 °C 6,1 km/h
03.06.2023 19:59 20,7 °C 37 % 0 cb 1018,5 hPa 0,0 mm 6,1 km/h O-NO 70 ° 0 min 5,5 °C 20,7 °C 6,1 km/h
03.06.2023 19:54 20,8 °C 37 % 0 cb 1018,5 hPa 0,0 mm 7,3 km/h O-SO 120 ° 0 min 5,6 °C 20,8 °C 7,3 km/h
03.06.2023 19:49 20,9 °C 36 % 0 cb 1018,5 hPa 0,0 mm 4,8 km/h S 170 ° 0 min 5,3 °C 20,9 °C 4,8 km/h
03.06.2023 19:44 21,0 °C 36 % 0 cb 1018,5 hPa 0,0 mm 4,2 km/h NO 35 ° 0 min 5,4 °C 21,0 °C 4,2 km/h
03.06.2023 19:39 21,2 °C 35 % 0 cb 1018,5 hPa 0,0 mm 8,5 km/h S-SO 165 ° 0 min 5,1 °C 21,2 °C 8,5 km/h
03.06.2023 19:34 21,2 °C 35 % 0 cb 1018,5 hPa 0,0 mm 8,5 km/h N-NO 30 ° 0 min 5,1 °C 21,2 °C 8,5 km/h
03.06.2023 19:29 21,3 °C 34 % 0 cb 1018,5 hPa 0,0 mm 13,3 km/h NO 45 ° 0 min 4,8 °C 21,3 °C 13,3 km/h
03.06.2023 19:24 21,5 °C 35 % 0 cb 1018,5 hPa 0,0 mm 8,5 km/h O 85 ° 0 min 5,4 °C 21,5 °C 8,5 km/h
03.06.2023 19:19 21,6 °C 35 % 0 cb 1017,5 hPa 0,0 mm 7,3 km/h O-NO 75 ° 0 min 5,5 °C 21,6 °C 7,3 km/h
03.06.2023 19:14 21,7 °C 35 % 0 cb 1017,5 hPa 0,0 mm 7,3 km/h O 95 ° 0 min 5,6 °C 21,7 °C 7,3 km/h
03.06.2023 19:09 21,9 °C 34 % 0 cb 1017,5 hPa 0,0 mm 14,5 km/h SO 130 ° 0 min 5,3 °C 21,9 °C 14,5 km/h
03.06.2023 19:04 22,1 °C 34 % 0 cb 1017,5 hPa 0,0 mm 9,7 km/h O 100 ° 0 min 5,5 °C 22,1 °C 9,7 km/h
03.06.2023 18:59 22,4 °C 34 % 0 cb 1017,5 hPa 0,0 mm 6,1 km/h O-SO 110 ° 0 min 5,8 °C 22,4 °C 6,1 km/h
03.06.2023 18:54 22,6 °C 35 % 0 cb 1017,5 hPa 0,0 mm 6,1 km/h S 190 ° 0 min 6,4 °C 22,6 °C 6,1 km/h
03.06.2023 18:49 22,8 °C 34 % 0 cb 1018,5 hPa 0,0 mm 3,6 km/h W 280 ° 0 min 6,1 °C 22,8 °C 3,6 km/h
03.06.2023 18:44 22,8 °C 34 % 0 cb 1018,5 hPa 0,0 mm 6,1 km/h O-NO 70 ° 0 min 6,1 °C 22,8 °C 6,1 km/h
03.06.2023 18:39 23,1 °C 34 % 2 cb 1018,5 hPa 0,0 mm 9,7 km/h S-SW 210 ° 2 min 6,4 °C 23,1 °C 9,7 km/h
03.06.2023 18:34 23,3 °C 33 % 6 cb 1018,5 hPa 0,0 mm 9,1 km/h SO 130 ° 6 min 6,1 °C 23,3 °C 9,1 km/h
03.06.2023 18:29 23,4 °C 33 % 4 cb 1018,5 hPa 0,0 mm 9,1 km/h O 95 ° 4 min 6,2 °C 23,4 °C 9,1 km/h
03.06.2023 18:24 23,5 °C 33 % 5 cb 1018,5 hPa 0,0 mm 9,7 km/h N-NW 345 ° 5 min 6,3 °C 23,5 °C 9,7 km/h
03.06.2023 18:19 23,7 °C 33 % 5 cb 1017,5 hPa 0,0 mm 9,7 km/h O 100 ° 5 min 6,5 °C 23,7 °C 9,7 km/h
03.06.2023 18:14 23,7 °C 34 % 5 cb 1017,5 hPa 0,0 mm 8,5 km/h NO 50 ° 5 min 6,9 °C 23,7 °C 8,5 km/h
03.06.2023 18:09 23,8 °C 33 % 5 cb 1017,5 hPa 0,0 mm 5,4 km/h NW 305 ° 5 min 6,6 °C 23,8 °C 5,4 km/h
03.06.2023 18:04 23,7 °C 33 % 5 cb 1018,5 hPa 0,0 mm 10,9 km/h N-NW 335 ° 5 min 6,5 °C 23,7 °C 10,9 km/h
03.06.2023 17:59 24,1 °C 34 % 6 cb 1018,5 hPa 0,0 mm 7,9 km/h O-SO 110 ° 6 min 7,2 °C 24,1 °C 7,9 km/h
03.06.2023 17:54 24,3 °C 34 % 4 cb 1018,5 hPa 0,0 mm 10,9 km/h O 80 ° 4 min 7,4 °C 24,3 °C 10,9 km/h
03.06.2023 17:49 24,2 °C 35 % 6 cb 1018,5 hPa 0,0 mm 5,4 km/h N-NO 30 ° 6 min 7,8 °C 24,2 °C 5,4 km/h
03.06.2023 17:44 24,5 °C 34 % 4 cb 1018,5 hPa 0,0 mm 6,7 km/h SO 145 ° 4 min 7,6 °C 24,5 °C 6,7 km/h
03.06.2023 17:39 24,5 °C 34 % 6 cb 1018,5 hPa 0,0 mm 3,6 km/h NO 35 ° 6 min 7,6 °C 24,5 °C 3,6 km/h
03.06.2023 17:34 24,3 °C 34 % 5 cb 1018,5 hPa 0,0 mm 12,7 km/h S-SO 165 ° 5 min 7,4 °C 24,3 °C 12,7 km/h
03.06.2023 17:29 24,4 °C 35 % 5 cb 1018,5 hPa 0,0 mm 10,3 km/h O-SO 115 ° 5 min 7,9 °C 24,4 °C 10,3 km/h
03.06.2023 17:24 24,1 °C 35 % 5 cb 1018,5 hPa 0,0 mm 9,1 km/h W 265 ° 5 min 7,7 °C 24,1 °C 9,1 km/h
03.06.2023 17:19 24,3 °C 34 % 5 cb 1018,5 hPa 0,0 mm 10,9 km/h S-SO 150 ° 5 min 7,4 °C 24,3 °C 10,9 km/h
03.06.2023 17:14 24,2 °C 34 % 6 cb 1018,5 hPa 0,0 mm 10,9 km/h S-SO 160 ° 6 min 7,3 °C 24,2 °C 10,9 km/h
03.06.2023 17:09 24,5 °C 35 % 5 cb 1018,5 hPa 0,0 mm 6,1 km/h N 0 ° 5 min 8,0 °C 24,5 °C 6,1 km/h
03.06.2023 17:04 24,4 °C 37 % 5 cb 1018,5 hPa 0,0 mm 3,6 km/h O 80 ° 5 min 8,8 °C 24,4 °C 3,6 km/h
03.06.2023 16:59 23,8 °C 36 % 5 cb 1018,5 hPa 0,0 mm 6,1 km/h SO 145 ° 5 min 7,8 °C 23,8 °C 6,1 km/h
03.06.2023 16:54 23,5 °C 36 % 5 cb 1018,5 hPa 0,0 mm 17,6 km/h W 275 ° 5 min 7,6 °C 23,5 °C 17,6 km/h
03.06.2023 16:49 23,5 °C 35 % 4 cb 1018,5 hPa 0,0 mm 9,7 km/h SO 140 ° 4 min 7,1 °C 23,5 °C 9,7 km/h
03.06.2023 16:44 23,4 °C 35 % 6 cb 1018,5 hPa 0,0 mm 12,7 km/h O-NO 70 ° 6 min 7,1 °C 23,4 °C 12,7 km/h
03.06.2023 16:39 23,7 °C 34 % 3 cb 1018,5 hPa 0,0 mm 10,9 km/h NO 50 ° 3 min 6,9 °C 23,7 °C 10,9 km/h
03.06.2023 16:34 24,5 °C 34 % 7 cb 1018,5 hPa 0,0 mm 9,7 km/h N-NO 30 ° 7 min 7,6 °C 24,5 °C 9,7 km/h
03.06.2023 16:29 24,9 °C 36 % 3 cb 1018,5 hPa 0,0 mm 6,1 km/h NO 50 ° 3 min 8,8 °C 24,9 °C 6,1 km/h
03.06.2023 16:24 24,8 °C 36 % 7 cb 1018,5 hPa 0,0 mm 4,8 km/h W-SW 240 ° 7 min 8,7 °C 24,8 °C 4,8 km/h
03.06.2023 16:19 24,3 °C 36 % 5 cb 1018,5 hPa 0,0 mm 7,9 km/h SO 135 ° 5 min 8,3 °C 24,3 °C 7,9 km/h
03.06.2023 16:14 24,5 °C 35 % 3 cb 1018,5 hPa 0,0 mm 12,1 km/h O-SO 105 ° 3 min 8,0 °C 24,5 °C 12,1 km/h
03.06.2023 16:09 24,4 °C 35 % 5 cb 1018,5 hPa 0,0 mm 12,1 km/h S-SO 165 ° 5 min 7,9 °C 24,4 °C 12,1 km/h
03.06.2023 16:04 25,4 °C 37 % 5 cb 1018,5 hPa 0,0 mm 6,1 km/h S-SO 150 ° 5 min 9,6 °C 25,4 °C 6,1 km/h
03.06.2023 15:59 25,2 °C 36 % 5 cb 1018,5 hPa 0,0 mm 3,6 km/h O-NO 75 ° 5 min 9,1 °C 25,2 °C 3,6 km/h
03.06.2023 15:54 24,9 °C 37 % 5 cb 1018,5 hPa 0,0 mm 7,3 km/h O-SO 110 ° 5 min 9,2 °C 24,9 °C 7,3 km/h
03.06.2023 15:49 24,4 °C 35 % 5 cb 1018,5 hPa 0,0 mm 7,9 km/h NO 50 ° 5 min 7,9 °C 24,4 °C 7,9 km/h
03.06.2023 15:44 25,3 °C 37 % 6 cb 1018,5 hPa 0,0 mm 16,3 km/h N-NW 330 ° 6 min 9,6 °C 25,3 °C 16,3 km/h
03.06.2023 15:39 24,7 °C 38 % 4 cb 1018,5 hPa 0,0 mm 4,2 km/h NW 305 ° 4 min 9,4 °C 24,7 °C 4,2 km/h
03.06.2023 15:34 24,3 °C 38 % 6 cb 1018,5 hPa 0,0 mm 5,4 km/h NO 50 ° 6 min 9,1 °C 24,3 °C 5,4 km/h
03.06.2023 15:29 24,2 °C 36 % 4 cb 1018,5 hPa 0,0 mm 13,9 km/h O-NO 75 ° 4 min 8,2 °C 24,2 °C 13,9 km/h
03.06.2023 15:24 24,3 °C 38 % 5 cb 1018,5 hPa 0,0 mm 4,8 km/h O-NO 75 ° 5 min 9,1 °C 24,3 °C 4,8 km/h
03.06.2023 15:19 24,0 °C 37 % 5 cb 1019,5 hPa 0,0 mm 12,1 km/h O 85 ° 5 min 8,4 °C 24,0 °C 12,1 km/h
03.06.2023 15:14 24,2 °C 37 % 5 cb 1019,5 hPa 0,0 mm 12,1 km/h O-NO 70 ° 5 min 8,6 °C 24,2 °C 12,1 km/h
03.06.2023 15:09 24,4 °C 38 % 5 cb 1019,5 hPa 0,0 mm 3,6 km/h S-SO 165 ° 5 min 9,2 °C 24,4 °C 3,6 km/h
03.06.2023 15:04 24,4 °C 37 % 5 cb 1018,5 hPa 0,0 mm 8,5 km/h O-NO 75 ° 5 min 8,8 °C 24,4 °C 8,5 km/h
_ Min-Zeit 05:53 14:10 06:43 14:10 - 07:53 - - - 03:44 05:53 07:53
Minimum _ 9,1 °C 30 % 0 cb 1014,0 hPa - 0,0 km/h - - - 4,5 °C 9,1 °C 0,0 km/h
_ Max-Zeit 13:20 06:48 11:55 09:15 14:10 16:54 - - 11:55 10:25 13:20 16:54
Maximum _ 27,1 °C 76 % 8 cb 1020,6 hPa 0,0 mm 17,6 km/h
W
- - 8 min 10,9 °C 27,1 °C 17,6 km/h
W
Durchschnitt _ 18,7 °C 48 % 3 cb 1018,4 hPa #0,0 mm 4,2 km/h NO - #7:20 h 6,9 °C 18,7 °C 4,2 km/h
H.Kloepper